sensor_id;sensor_type;location;lat;lon;timestamp;pressure;altitude;pressure_sealevel;temperature;humidity
10806;BME280;5455;53.224;6.000;2022-07-23T00:00:40;101956.66;;;16.21;98.68
10806;BME280;5455;53.224;6.000;2022-07-23T00:03:07;101959.44;;;16.21;98.85
10806;BME280;5455;53.224;6.000;2022-07-23T00:05:35;101953.13;;;16.24;99.11
10806;BME280;5455;53.224;6.000;2022-07-23T00:08:03;101947.63;;;16.28;99.23
10806;BME280;5455;53.224;6.000;2022-07-23T00:10:32;101957.22;;;16.30;98.96
10806;BME280;5455;53.224;6.000;2022-07-23T00:12:59;101950.09;;;16.33;98.48
10806;BME280;5455;53.224;6.000;2022-07-23T00:15:26;101948.53;;;16.35;98.80
10806;BME280;5455;53.224;6.000;2022-07-23T00:17:52;101946.94;;;16.34;98.95
10806;BME280;5455;53.224;6.000;2022-07-23T00:20:19;101944.53;;;16.33;98.51
10806;BME280;5455;53.224;6.000;2022-07-23T00:22:51;101954.03;;;16.32;99.12
10806;BME280;5455;53.224;6.000;2022-07-23T00:25:19;101940.94;;;16.32;99.28
10806;BME280;5455;53.224;6.000;2022-07-23T00:27:57;101934.94;;;16.30;98.64
10806;BME280;5455;53.224;6.000;2022-07-23T00:30:25;101937.25;;;16.25;98.83
10806;BME280;5455;53.224;6.000;2022-07-23T00:32:54;101935.47;;;16.17;99.14
10806;BME280;5455;53.224;6.000;2022-07-23T00:35:28;101941.28;;;16.08;99.63
10806;BME280;5455;53.224;6.000;2022-07-23T00:37:56;101934.06;;;16.04;99.97
10806;BME280;5455;53.224;6.000;2022-07-23T00:40:23;101937.22;;;16.02;100.00
10806;BME280;5455;53.224;6.000;2022-07-23T00:42:50;101925.28;;;16.02;100.00
10806;BME280;5455;53.224;6.000;2022-07-23T00:45:18;101934.44;;;16.02;100.00
10806;BME280;5455;53.224;6.000;2022-07-23T00:47:45;101932.31;;;15.95;100.00
10806;BME280;5455;53.224;6.000;2022-07-23T00:50:13;101933.69;;;15.82;100.00
10806;BME280;5455;53.224;6.000;2022-07-23T00:52:40;101936.63;;;15.70;100.00
10806;BME280;5455;53.224;6.000;2022-07-23T00:55:09;101934.34;;;15.57;100.00
10806;BME280;5455;53.224;6.000;2022-07-23T00:57:36;101930.25;;;15.51;100.00
10806;BME280;5455;53.224;6.000;2022-07-23T01:00:05;101933.28;;;15.45;100.00
10806;BME280;5455;53.224;6.000;2022-07-23T01:02:34;101925.25;;;15.40;100.00
10806;BME280;5455;53.224;6.000;2022-07-23T01:05:01;101926.72;;;15.34;100.00
10806;BME280;5455;53.224;6.000;2022-07-23T01:07:29;101917.50;;;15.30;100.00
10806;BME280;5455;53.224;6.000;2022-07-23T01:09:56;101925.41;;;15.28;100.00
10806;BME280;5455;53.224;6.000;2022-07-23T01:12:23;101909.16;;;15.30;100.00
10806;BME280;5455;53.224;6.000;2022-07-23T01:14:58;101912.75;;;15.31;100.00
10806;BME280;5455;53.224;6.000;2022-07-23T01:17:27;101915.09;;;15.29;100.00
10806;BME280;5455;53.224;6.000;2022-07-23T01:19:54;101916.25;;;15.28;100.00
10806;BME280;5455;53.224;6.000;2022-07-23T01:22:21;101922.97;;;15.27;100.00
10806;BME280;5455;53.224;6.000;2022-07-23T01:24:48;101916.91;;;15.21;100.00
10806;BME280;5455;53.224;6.000;2022-07-23T01:27:20;101919.59;;;15.18;100.00
10806;BME280;5455;53.224;6.000;2022-07-23T01:29:50;101913.09;;;15.10;100.00
10806;BME280;5455;53.224;6.000;2022-07-23T01:32:20;101914.63;;;15.08;100.00
10806;BME280;5455;53.224;6.000;2022-07-23T01:34:47;101912.19;;;15.06;100.00
10806;BME280;5455;53.224;6.000;2022-07-23T01:37:15;101908.25;;;15.07;100.00
10806;BME280;5455;53.224;6.000;2022-07-23T01:39:43;101911.03;;;15.07;100.00
10806;BME280;5455;53.224;6.000;2022-07-23T01:42:11;101904.38;;;15.12;100.00
10806;BME280;5455;53.224;6.000;2022-07-23T01:44:39;101901.69;;;15.15;100.00
10806;BME280;5455;53.224;6.000;2022-07-23T01:47:11;101894.59;;;15.18;100.00
10806;BME280;5455;53.224;6.000;2022-07-23T01:49:38;101897.81;;;15.20;100.00
10806;BME280;5455;53.224;6.000;2022-07-23T01:52:43;101897.09;;;15.23;100.00
10806;BME280;5455;53.224;6.000;2022-07-23T01:55:10;101892.31;;;15.23;100.00
10806;BME280;5455;53.224;6.000;2022-07-23T01:57:46;101888.38;;;15.24;100.00
10806;BME280;5455;53.224;6.000;2022-07-23T02:00:15;101890.72;;;15.22;100.00
10806;BME280;5455;53.224;6.000;2022-07-23T02:02:50;101889.84;;;15.18;100.00
10806;BME280;5455;53.224;6.000;2022-07-23T02:05:17;101881.00;;;15.13;100.00
10806;BME280;5455;53.224;6.000;2022-07-23T02:07:45;101874.41;;;15.02;100.00
10806;BME280;5455;53.224;6.000;2022-07-23T02:10:12;101879.44;;;14.96;100.00
10806;BME280;5455;53.224;6.000;2022-07-23T02:12:39;101874.53;;;14.89;100.00
10806;BME280;5455;53.224;6.000;2022-07-23T02:15:09;101873.22;;;14.83;100.00
10806;BME280;5455;53.224;6.000;2022-07-23T02:17:36;101876.34;;;14.82;100.00
10806;BME280;5455;53.224;6.000;2022-07-23T02:20:03;101878.59;;;14.76;100.00
10806;BME280;5455;53.224;6.000;2022-07-23T02:22:30;101874.94;;;14.72;100.00
10806;BME280;5455;53.224;6.000;2022-07-23T02:24:57;101869.75;;;14.71;100.00
10806;BME280;5455;53.224;6.000;2022-07-23T02:27:24;101871.56;;;14.63;100.00
10806;BME280;5455;53.224;6.000;2022-07-23T02:29:52;101882.59;;;14.60;100.00
10806;BME280;5455;53.224;6.000;2022-07-23T02:32:20;101875.78;;;14.57;100.00
10806;BME280;5455;53.224;6.000;2022-07-23T02:34:47;101872.03;;;14.50;100.00
10806;BME280;5455;53.224;6.000;2022-07-23T02:37:17;101877.88;;;14.45;100.00
10806;BME280;5455;53.224;6.000;2022-07-23T02:39:44;101869.00;;;14.39;100.00
10806;BME280;5455;53.224;6.000;2022-07-23T02:42:11;101873.66;;;14.35;100.00
10806;BME280;5455;53.224;6.000;2022-07-23T02:44:40;101872.72;;;14.31;100.00
10806;BME280;5455;53.224;6.000;2022-07-23T02:47:07;101882.16;;;14.26;100.00
10806;BME280;5455;53.224;6.000;2022-07-23T02:49:34;101878.19;;;14.27;100.00
10806;BME280;5455;53.224;6.000;2022-07-23T02:52:04;101878.28;;;14.31;100.00
10806;BME280;5455;53.224;6.000;2022-07-23T02:54:31;101885.38;;;14.28;100.00
10806;BME280;5455;53.224;6.000;2022-07-23T02:56:58;101879.63;;;14.21;100.00
10806;BME280;5455;53.224;6.000;2022-07-23T02:59:25;101874.63;;;14.11;100.00
10806;BME280;5455;53.224;6.000;2022-07-23T03:01:52;101880.19;;;14.11;100.00
10806;BME280;5455;53.224;6.000;2022-07-23T03:04:19;101876.16;;;14.09;100.00
10806;BME280;5455;53.224;6.000;2022-07-23T03:06:46;101884.66;;;14.16;100.00
10806;BME280;5455;53.224;6.000;2022-07-23T03:09:13;101889.03;;;14.17;100.00
10806;BME280;5455;53.224;6.000;2022-07-23T03:11:41;101888.41;;;14.08;100.00
10806;BME280;5455;53.224;6.000;2022-07-23T03:14:07;101884.38;;;14.05;100.00
10806;BME280;5455;53.224;6.000;2022-07-23T03:16:36;101878.03;;;14.05;100.00
10806;BME280;5455;53.224;6.000;2022-07-23T03:19:03;101879.66;;;14.06;100.00
10806;BME280;5455;53.224;6.000;2022-07-23T03:21:32;101880.91;;;14.08;100.00
10806;BME280;5455;53.224;6.000;2022-07-23T03:24:01;101881.78;;;14.12;100.00
10806;BME280;5455;53.224;6.000;2022-07-23T03:26:28;101889.31;;;14.12;100.00
10806;BME280;5455;53.224;6.000;2022-07-23T03:28:55;101879.38;;;14.11;100.00
10806;BME280;5455;53.224;6.000;2022-07-23T03:31:22;101884.00;;;14.07;100.00
10806;BME280;5455;53.224;6.000;2022-07-23T03:33:49;101886.34;;;14.05;100.00
10806;BME280;5455;53.224;6.000;2022-07-23T03:36:16;101882.34;;;14.02;100.00
10806;BME280;5455;53.224;6.000;2022-07-23T03:38:46;101891.00;;;14.01;100.00
10806;BME280;5455;53.224;6.000;2022-07-23T03:41:13;101886.25;;;14.01;100.00
10806;BME280;5455;53.224;6.000;2022-07-23T03:43:40;101881.97;;;14.04;100.00
10806;BME280;5455;53.224;6.000;2022-07-23T03:46:07;101883.56;;;14.05;100.00
10806;BME280;5455;53.224;6.000;2022-07-23T03:48:35;101889.94;;;14.05;100.00
10806;BME280;5455;53.224;6.000;2022-07-23T03:51:02;101887.16;;;14.05;100.00
10806;BME280;5455;53.224;6.000;2022-07-23T03:53:29;101879.28;;;14.07;100.00
10806;BME280;5455;53.224;6.000;2022-07-23T03:55:56;101884.81;;;14.07;100.00
10806;BME280;5455;53.224;6.000;2022-07-23T03:58:24;101878.56;;;14.10;100.00
10806;BME280;5455;53.224;6.000;2022-07-23T04:00:52;101883.41;;;14.13;100.00
10806;BME280;5455;53.224;6.000;2022-07-23T04:03:19;101877.13;;;14.16;100.00
10806;BME280;5455;53.224;6.000;2022-07-23T04:05:47;101881.16;;;14.19;100.00
10806;BME280;5455;53.224;6.000;2022-07-23T04:08:15;101891.19;;;14.23;100.00
10806;BME280;5455;53.224;6.000;2022-07-23T04:10:47;101886.97;;;14.29;100.00
10806;BME280;5455;53.224;6.000;2022-07-23T04:13:15;101889.59;;;14.38;100.00
10806;BME280;5455;53.224;6.000;2022-07-23T04:15:42;101889.41;;;14.47;100.00
10806;BME280;5455;53.224;6.000;2022-07-23T04:18:09;101893.88;;;14.51;100.00
10806;BME280;5455;53.224;6.000;2022-07-23T04:20:52;101893.94;;;14.55;100.00
10806;BME280;5455;53.224;6.000;2022-07-23T04:23:20;101895.91;;;14.54;100.00
10806;BME280;5455;53.224;6.000;2022-07-23T04:25:47;101897.09;;;14.53;100.00
10806;BME280;5455;53.224;6.000;2022-07-23T04:28:15;101893.53;;;14.53;100.00
10806;BME280;5455;53.224;6.000;2022-07-23T04:30:42;101900.69;;;14.54;100.00
10806;BME280;5455;53.224;6.000;2022-07-23T04:33:11;101896.38;;;14.56;100.00
10806;BME280;5455;53.224;6.000;2022-07-23T04:35:39;101894.03;;;14.58;100.00
10806;BME280;5455;53.224;6.000;2022-07-23T04:38:13;101893.22;;;14.58;100.00
10806;BME280;5455;53.224;6.000;2022-07-23T04:40:41;101892.06;;;14.59;100.00
10806;BME280;5455;53.224;6.000;2022-07-23T04:43:08;101891.34;;;14.62;100.00
10806;BME280;5455;53.224;6.000;2022-07-23T04:45:42;101894.66;;;14.67;100.00
10806;BME280;5455;53.224;6.000;2022-07-23T04:48:09;101894.91;;;14.78;100.00
10806;BME280;5455;53.224;6.000;2022-07-23T04:50:36;101902.31;;;14.89;100.00
10806;BME280;5455;53.224;6.000;2022-07-23T04:53:04;101909.25;;;14.99;100.00
10806;BME280;5455;53.224;6.000;2022-07-23T04:55:31;101905.91;;;15.09;100.00
10806;BME280;5455;53.224;6.000;2022-07-23T04:57:58;101898.25;;;15.22;100.00
10806;BME280;5455;53.224;6.000;2022-07-23T05:00:25;101897.47;;;15.40;100.00
10806;BME280;5455;53.224;6.000;2022-07-23T05:02:52;101902.59;;;15.58;100.00
10806;BME280;5455;53.224;6.000;2022-07-23T05:05:20;101911.66;;;15.74;100.00
10806;BME280;5455;53.224;6.000;2022-07-23T05:07:47;101915.44;;;15.85;100.00
10806;BME280;5455;53.224;6.000;2022-07-23T05:10:16;101917.16;;;15.93;100.00
10806;BME280;5455;53.224;6.000;2022-07-23T05:12:43;101908.22;;;16.03;100.00
10806;BME280;5455;53.224;6.000;2022-07-23T05:15:10;101907.56;;;16.10;100.00
10806;BME280;5455;53.224;6.000;2022-07-23T05:17:37;101902.16;;;16.20;100.00
10806;BME280;5455;53.224;6.000;2022-07-23T05:20:10;101921.38;;;16.29;100.00
10806;BME280;5455;53.224;6.000;2022-07-23T05:22:37;101919.91;;;16.35;100.00
10806;BME280;5455;53.224;6.000;2022-07-23T05:25:05;101927.16;;;16.39;100.00
10806;BME280;5455;53.224;6.000;2022-07-23T05:27:33;101925.53;;;16.38;100.00
10806;BME280;5455;53.224;6.000;2022-07-23T05:30:00;101923.13;;;16.37;100.00
10806;BME280;5455;53.224;6.000;2022-07-23T05:32:28;101928.50;;;16.49;100.00
10806;BME280;5455;53.224;6.000;2022-07-23T05:35:07;101927.69;;;16.71;100.00
10806;BME280;5455;53.224;6.000;2022-07-23T05:37:38;101932.94;;;17.02;100.00
10806;BME280;5455;53.224;6.000;2022-07-23T05:40:07;101935.91;;;17.17;98.45
10806;BME280;5455;53.224;6.000;2022-07-23T05:42:36;101935.72;;;17.32;97.18
10806;BME280;5455;53.224;6.000;2022-07-23T05:45:05;101938.19;;;17.37;95.76
10806;BME280;5455;53.224;6.000;2022-07-23T05:47:47;101928.75;;;17.49;95.30
10806;BME280;5455;53.224;6.000;2022-07-23T05:50:23;101925.44;;;17.66;94.32
10806;BME280;5455;53.224;6.000;2022-07-23T05:52:57;101922.84;;;17.84;93.07
10806;BME280;5455;53.224;6.000;2022-07-23T05:55:24;101931.25;;;17.87;92.03
10806;BME280;5455;53.224;6.000;2022-07-23T05:57:51;101927.75;;;17.97;91.58
10806;BME280;5455;53.224;6.000;2022-07-23T06:00:18;101937.34;;;18.00;90.86
10806;BME280;5455;53.224;6.000;2022-07-23T06:02:46;101937.84;;;18.09;90.35
10806;BME280;5455;53.224;6.000;2022-07-23T06:05:20;101935.94;;;18.16;90.65
10806;BME280;5455;53.224;6.000;2022-07-23T06:07:47;101939.53;;;18.21;90.25
10806;BME280;5455;53.224;6.000;2022-07-23T06:10:15;101935.97;;;18.20;89.58
10806;BME280;5455;53.224;6.000;2022-07-23T06:12:44;101928.69;;;18.08;89.64
10806;BME280;5455;53.224;6.000;2022-07-23T06:15:11;101926.88;;;17.90;89.95
10806;BME280;5455;53.224;6.000;2022-07-23T06:17:39;101927.47;;;17.69;90.45
10806;BME280;5455;53.224;6.000;2022-07-23T06:20:08;101919.72;;;17.55;91.38
10806;BME280;5455;53.224;6.000;2022-07-23T06:22:37;101925.50;;;17.43;91.98
10806;BME280;5455;53.224;6.000;2022-07-23T06:25:06;101928.25;;;17.40;93.14
10806;BME280;5455;53.224;6.000;2022-07-23T06:27:45;101930.28;;;17.43;93.86
10806;BME280;5455;53.224;6.000;2022-07-23T06:30:12;101929.53;;;17.46;93.72
10806;BME280;5455;53.224;6.000;2022-07-23T06:32:43;101935.69;;;17.58;93.66
10806;BME280;5455;53.224;6.000;2022-07-23T06:35:10;101923.34;;;17.59;91.92
10806;BME280;5455;53.224;6.000;2022-07-23T06:37:37;101927.78;;;17.64;91.01
10806;BME280;5455;53.224;6.000;2022-07-23T06:40:04;101932.28;;;17.76;90.05
10806;BME280;5455;53.224;6.000;2022-07-23T06:42:34;101930.81;;;17.85;88.83
10806;BME280;5455;53.224;6.000;2022-07-23T06:45:05;101938.09;;;17.97;87.34
10806;BME280;5455;53.224;6.000;2022-07-23T06:47:35;101944.22;;;18.09;86.30
10806;BME280;5455;53.224;6.000;2022-07-23T06:50:02;101945.97;;;18.25;85.05
10806;BME280;5455;53.224;6.000;2022-07-23T06:52:30;101941.75;;;18.45;84.45
10806;BME280;5455;53.224;6.000;2022-07-23T06:54:58;101943.19;;;18.68;83.17
10806;BME280;5455;53.224;6.000;2022-07-23T06:57:24;101950.16;;;18.96;81.54
10806;BME280;5455;53.224;6.000;2022-07-23T06:59:52;101955.53;;;19.29;78.12
10806;BME280;5455;53.224;6.000;2022-07-23T07:02:22;101965.72;;;19.58;74.38
10806;BME280;5455;53.224;6.000;2022-07-23T07:04:49;101964.22;;;19.89;71.35
10806;BME280;5455;53.224;6.000;2022-07-23T07:07:16;101967.50;;;20.12;68.25
10806;BME280;5455;53.224;6.000;2022-07-23T07:09:43;101973.56;;;20.39;66.77
10806;BME280;5455;53.224;6.000;2022-07-23T07:12:14;101977.56;;;20.63;65.07
10806;BME280;5455;53.224;6.000;2022-07-23T07:14:41;101981.16;;;20.56;65.08
10806;BME280;5455;53.224;6.000;2022-07-23T07:17:09;101981.56;;;20.86;65.08
10806;BME280;5455;53.224;6.000;2022-07-23T07:19:37;101985.16;;;20.80;63.98
10806;BME280;5455;53.224;6.000;2022-07-23T07:22:04;101983.16;;;20.91;65.00
10806;BME280;5455;53.224;6.000;2022-07-23T07:24:31;101986.75;;;21.06;63.73
10806;BME280;5455;53.224;6.000;2022-07-23T07:27:03;101984.75;;;20.96;63.89
10806;BME280;5455;53.224;6.000;2022-07-23T07:29:31;101992.78;;;20.94;63.79
10806;BME280;5455;53.224;6.000;2022-07-23T07:31:58;101993.16;;;21.17;62.61
10806;BME280;5455;53.224;6.000;2022-07-23T07:34:25;101993.09;;;21.45;60.58
10806;BME280;5455;53.224;6.000;2022-07-23T07:36:52;101993.50;;;21.43;60.47
10806;BME280;5455;53.224;6.000;2022-07-23T07:39:19;102002.66;;;21.69;60.06
10806;BME280;5455;53.224;6.000;2022-07-23T07:41:46;102001.84;;;21.68;58.99
10806;BME280;5455;53.224;6.000;2022-07-23T07:44:13;102008.66;;;21.60;58.41
10806;BME280;5455;53.224;6.000;2022-07-23T07:46:40;102004.69;;;21.58;57.92
10806;BME280;5455;53.224;6.000;2022-07-23T07:49:07;102009.84;;;21.66;57.85
10806;BME280;5455;53.224;6.000;2022-07-23T07:51:42;102017.44;;;21.80;58.20
10806;BME280;5455;53.224;6.000;2022-07-23T07:54:13;102015.38;;;21.87;57.73
10806;BME280;5455;53.224;6.000;2022-07-23T07:56:40;102012.28;;;21.57;56.47
10806;BME280;5455;53.224;6.000;2022-07-23T07:59:08;102010.34;;;21.33;58.18
10806;BME280;5455;53.224;6.000;2022-07-23T08:01:54;102022.00;;;21.38;58.70
10806;BME280;5455;53.224;6.000;2022-07-23T08:04:22;102022.81;;;21.35;58.77
10806;BME280;5455;53.224;6.000;2022-07-23T08:06:48;102027.59;;;21.35;59.35
10806;BME280;5455;53.224;6.000;2022-07-23T08:09:15;102032.88;;;21.12;58.80
10806;BME280;5455;53.224;6.000;2022-07-23T08:11:42;102026.84;;;21.10;60.45
10806;BME280;5455;53.224;6.000;2022-07-23T08:14:09;102038.88;;;21.17;60.98
10806;BME280;5455;53.224;6.000;2022-07-23T08:16:37;102032.03;;;20.97;59.94
10806;BME280;5455;53.224;6.000;2022-07-23T08:19:24;102039.22;;;20.91;61.19
10806;BME280;5455;53.224;6.000;2022-07-23T08:21:51;102032.44;;;20.81;60.57
10806;BME280;5455;53.224;6.000;2022-07-23T08:24:18;102036.44;;;20.98;61.65
10806;BME280;5455;53.224;6.000;2022-07-23T08:26:46;102043.66;;;20.88;61.03
10806;BME280;5455;53.224;6.000;2022-07-23T08:29:13;102034.84;;;20.86;62.80
10806;BME280;5455;53.224;6.000;2022-07-23T08:31:39;102038.84;;;20.93;62.93
10806;BME280;5455;53.224;6.000;2022-07-23T08:34:06;102039.25;;;21.23;63.69
10806;BME280;5455;53.224;6.000;2022-07-23T08:36:33;102045.22;;;21.46;61.98
10806;BME280;5455;53.224;6.000;2022-07-23T08:39:00;102046.03;;;21.47;62.23
10806;BME280;5455;53.224;6.000;2022-07-23T08:41:29;102040.34;;;21.64;62.47
10806;BME280;5455;53.224;6.000;2022-07-23T08:43:56;102052.31;;;21.82;62.32
10806;BME280;5455;53.224;6.000;2022-07-23T08:46:27;102049.03;;;22.05;61.34
10806;BME280;5455;53.224;6.000;2022-07-23T08:48:54;102045.75;;;22.21;60.55
10806;BME280;5455;53.224;6.000;2022-07-23T08:51:25;102050.53;;;22.31;59.36
10806;BME280;5455;53.224;6.000;2022-07-23T08:53:56;102047.09;;;21.99;59.77
10806;BME280;5455;53.224;6.000;2022-07-23T08:56:24;102044.28;;;21.84;60.35
10806;BME280;5455;53.224;6.000;2022-07-23T08:58:53;102045.03;;;22.06;61.12
10806;BME280;5455;53.224;6.000;2022-07-23T09:01:20;102045.00;;;22.17;58.95
10806;BME280;5455;53.224;6.000;2022-07-23T09:03:47;102049.72;;;22.30;59.95
10806;BME280;5455;53.224;6.000;2022-07-23T09:06:15;102042.31;;;22.58;61.04
10806;BME280;5455;53.224;6.000;2022-07-23T09:08:43;102048.25;;;22.74;59.30
10806;BME280;5455;53.224;6.000;2022-07-23T09:11:12;102047.56;;;22.56;59.24
10806;BME280;5455;53.224;6.000;2022-07-23T09:13:53;102036.50;;;22.20;61.26
10806;BME280;5455;53.224;6.000;2022-07-23T09:16:26;102037.09;;;21.80;63.71
10806;BME280;5455;53.224;6.000;2022-07-23T09:18:55;102032.66;;;21.79;64.22
10806;BME280;5455;53.224;6.000;2022-07-23T09:21:41;102043.03;;;22.00;63.68
10806;BME280;5455;53.224;6.000;2022-07-23T09:24:12;102035.78;;;22.09;62.72
10806;BME280;5455;53.224;6.000;2022-07-23T09:26:46;102039.31;;;22.24;62.21
10806;BME280;5455;53.224;6.000;2022-07-23T09:29:21;102044.81;;;22.45;61.84
10806;BME280;5455;53.224;6.000;2022-07-23T09:31:52;102045.09;;;22.61;59.56
10806;BME280;5455;53.224;6.000;2022-07-23T09:34:23;102054.81;;;23.04;58.10
10806;BME280;5455;53.224;6.000;2022-07-23T09:36:55;102049.88;;;23.19;58.07
10806;BME280;5455;53.224;6.000;2022-07-23T09:39:30;102049.25;;;23.01;58.29
10806;BME280;5455;53.224;6.000;2022-07-23T09:42:12;102046.19;;;22.81;59.40
10806;BME280;5455;53.224;6.000;2022-07-23T09:44:45;102038.13;;;22.83;61.16
10806;BME280;5455;53.224;6.000;2022-07-23T09:47:12;102045.03;;;23.20;60.37
10806;BME280;5455;53.224;6.000;2022-07-23T09:49:40;102051.31;;;23.75;56.25
10806;BME280;5455;53.224;6.000;2022-07-23T09:52:07;102053.94;;;23.89;58.29
10806;BME280;5455;53.224;6.000;2022-07-23T09:54:37;102057.69;;;24.09;55.36
10806;BME280;5455;53.224;6.000;2022-07-23T09:57:09;102048.88;;;24.07;55.63
10806;BME280;5455;53.224;6.000;2022-07-23T09:59:40;102058.25;;;23.97;56.15
10806;BME280;5455;53.224;6.000;2022-07-23T10:02:08;102060.72;;;23.95;55.66
10806;BME280;5455;53.224;6.000;2022-07-23T10:04:53;102059.78;;;23.72;56.29
10806;BME280;5455;53.224;6.000;2022-07-23T10:07:37;102066.81;;;23.90;56.28
10806;BME280;5455;53.224;6.000;2022-07-23T10:10:33;102069.94;;;23.99;55.78
10806;BME280;5455;53.224;6.000;2022-07-23T10:13:30;102071.13;;;24.32;55.39
10806;BME280;5455;53.224;6.000;2022-07-23T10:16:18;102068.03;;;25.03;52.05
10806;BME280;5455;53.224;6.000;2022-07-23T10:18:53;102064.00;;;25.04;48.74
10806;BME280;5455;53.224;6.000;2022-07-23T10:21:27;102067.59;;;24.25;49.92
10806;BME280;5455;53.224;6.000;2022-07-23T10:27:23;102068.97;;;24.09;51.37
10806;BME280;5455;53.224;6.000;2022-07-23T10:32:57;102076.69;;;24.39;51.35
10806;BME280;5455;53.224;6.000;2022-07-23T10:35:52;102086.47;;;24.28;50.98
10806;BME280;5455;53.224;6.000;2022-07-23T10:38:25;102088.38;;;24.64;50.37
10806;BME280;5455;53.224;6.000;2022-07-23T10:43:26;102094.25;;;24.50;49.79
10806;BME280;5455;53.224;6.000;2022-07-23T10:45:54;102087.13;;;24.12;48.15
10806;BME280;5455;53.224;6.000;2022-07-23T10:48:24;102083.25;;;23.95;48.97
10806;BME280;5455;53.224;6.000;2022-07-23T10:51:13;102067.16;;;23.58;49.93
10806;BME280;5455;53.224;6.000;2022-07-23T10:53:53;102062.50;;;23.00;51.09
10806;BME280;5455;53.224;6.000;2022-07-23T10:59:23;102058.50;;;22.98;53.07
10806;BME280;5455;53.224;6.000;2022-07-23T11:01:50;102068.31;;;23.24;52.91
10806;BME280;5455;53.224;6.000;2022-07-23T11:04:18;102064.78;;;23.57;50.62
10806;BME280;5455;53.224;6.000;2022-07-23T11:09:27;102075.84;;;24.08;50.83
10806;BME280;5455;53.224;6.000;2022-07-23T11:17:26;102067.28;;;23.85;51.95
10806;BME280;5455;53.224;6.000;2022-07-23T11:22:47;102063.66;;;23.07;50.82
10806;BME280;5455;53.224;6.000;2022-07-23T11:25:29;102056.44;;;23.02;52.51
10806;BME280;5455;53.224;6.000;2022-07-23T11:28:13;102067.81;;;23.32;53.26
10806;BME280;5455;53.224;6.000;2022-07-23T11:30:44;102066.09;;;23.83;52.62
10806;BME280;5455;53.224;6.000;2022-07-23T11:35:41;102083.22;;;24.33;48.35
10806;BME280;5455;53.224;6.000;2022-07-23T11:38:17;102078.53;;;24.49;49.12
10806;BME280;5455;53.224;6.000;2022-07-23T11:40:46;102074.50;;;24.77;48.09
10806;BME280;5455;53.224;6.000;2022-07-23T11:43:14;102081.28;;;24.83;49.07
10806;BME280;5455;53.224;6.000;2022-07-23T11:45:49;102075.94;;;24.89;48.66
10806;BME280;5455;53.224;6.000;2022-07-23T11:48:22;102074.91;;;24.76;49.30
10806;BME280;5455;53.224;6.000;2022-07-23T11:50:50;102072.34;;;24.58;47.74
10806;BME280;5455;53.224;6.000;2022-07-23T11:53:24;102074.00;;;24.29;48.14
10806;BME280;5455;53.224;6.000;2022-07-23T11:55:52;102074.75;;;23.99;49.80
10806;BME280;5455;53.224;6.000;2022-07-23T11:58:19;102079.31;;;24.23;48.82
10806;BME280;5455;53.224;6.000;2022-07-23T12:00:47;102078.47;;;24.53;49.23
10806;BME280;5455;53.224;6.000;2022-07-23T12:03:14;102081.84;;;24.98;49.77
10806;BME280;5455;53.224;6.000;2022-07-23T12:05:41;102081.84;;;25.21;47.83
10806;BME280;5455;53.224;6.000;2022-07-23T12:08:09;102075.19;;;25.54;48.69
10806;BME280;5455;53.224;6.000;2022-07-23T12:10:40;102081.38;;;25.69;48.33
10806;BME280;5455;53.224;6.000;2022-07-23T12:13:17;102078.91;;;25.51;46.96
10806;BME280;5455;53.224;6.000;2022-07-23T12:15:47;102075.81;;;25.42;47.48
10806;BME280;5455;53.224;6.000;2022-07-23T12:18:22;102071.16;;;25.75;48.36
10806;BME280;5455;53.224;6.000;2022-07-23T12:20:54;102083.34;;;25.72;47.83
10806;BME280;5455;53.224;6.000;2022-07-23T12:23:24;102080.59;;;25.88;47.64
10806;BME280;5455;53.224;6.000;2022-07-23T12:25:53;102079.84;;;25.84;46.27
10806;BME280;5455;53.224;6.000;2022-07-23T12:28:28;102077.41;;;26.06;46.97
10806;BME280;5455;53.224;6.000;2022-07-23T12:30:57;102081.88;;;25.64;46.79
10806;BME280;5455;53.224;6.000;2022-07-23T12:33:29;102072.63;;;25.40;47.40
10806;BME280;5455;53.224;6.000;2022-07-23T12:35:58;102082.25;;;26.05;47.74
10806;BME280;5455;53.224;6.000;2022-07-23T12:38:27;102086.84;;;26.19;46.02
10806;BME280;5455;53.224;6.000;2022-07-23T12:41:03;102083.00;;;25.47;46.35
10806;BME280;5455;53.224;6.000;2022-07-23T12:43:33;102081.28;;;25.06;47.82
10806;BME280;5455;53.224;6.000;2022-07-23T12:46:09;102075.94;;;25.35;47.59
10806;BME280;5455;53.224;6.000;2022-07-23T12:48:52;102082.47;;;25.32;46.56
10806;BME280;5455;53.224;6.000;2022-07-23T12:51:25;102081.16;;;25.37;47.02
10806;BME280;5455;53.224;6.000;2022-07-23T12:53:56;102078.09;;;25.04;47.30
10806;BME280;5455;53.224;6.000;2022-07-23T12:56:29;102076.09;;;24.78;48.59
10806;BME280;5455;53.224;6.000;2022-07-23T12:59:04;102074.34;;;25.34;49.06
10806;BME280;5455;53.224;6.000;2022-07-23T13:01:39;102074.78;;;26.35;47.54
10806;BME280;5455;53.224;6.000;2022-07-23T13:04:18;102071.63;;;26.49;44.47
10806;BME280;5455;53.224;6.000;2022-07-23T13:06:55;102079.84;;;26.59;45.13
10806;BME280;5455;53.224;6.000;2022-07-23T13:09:28;102081.69;;;26.50;45.17
10806;BME280;5455;53.224;6.000;2022-07-23T13:12:15;102083.47;;;26.44;45.94
10806;BME280;5455;53.224;6.000;2022-07-23T13:14:42;102075.09;;;26.20;45.54
10806;BME280;5455;53.224;6.000;2022-07-23T13:17:09;102080.72;;;25.81;46.38
10806;BME280;5455;53.224;6.000;2022-07-23T13:19:36;102088.50;;;25.77;46.83
10806;BME280;5455;53.224;6.000;2022-07-23T13:22:03;102083.78;;;25.90;46.21
10806;BME280;5455;53.224;6.000;2022-07-23T13:24:35;102084.19;;;26.08;46.30
10806;BME280;5455;53.224;6.000;2022-07-23T13:27:05;102088.25;;;26.47;45.54
10806;BME280;5455;53.224;6.000;2022-07-23T13:29:38;102097.19;;;26.06;44.43
10806;BME280;5455;53.224;6.000;2022-07-23T13:32:05;102084.59;;;26.10;45.90
10806;BME280;5455;53.224;6.000;2022-07-23T13:34:39;102083.72;;;26.13;45.81